sensor_id;sensor_type;location;lat;lon;timestamp;pressure;altitude;pressure_sealevel;temperature;humidity
15674;BME280;7937;48.090;16.212;2023-03-23T00:00:42;97346.81;;;5.97;68.41
15674;BME280;7937;48.090;16.212;2023-03-23T00:03:42;97350.28;;;5.91;68.66
15674;BME280;7937;48.090;16.212;2023-03-23T00:06:44;97318.13;;;5.76;68.73
15674;BME280;7937;48.090;16.212;2023-03-23T00:09:45;97351.97;;;5.85;68.74
15674;BME280;7937;48.090;16.212;2023-03-23T00:12:47;97343.91;;;5.80;68.88
15674;BME280;7937;48.090;16.212;2023-03-23T00:15:50;97346.53;;;5.80;68.93
15674;BME280;7937;48.090;16.212;2023-03-23T00:18:55;97340.47;;;5.80;69.04
15674;BME280;7937;48.090;16.212;2023-03-23T00:21:57;97350.00;;;5.81;69.09
15674;BME280;7937;48.090;16.212;2023-03-23T00:25:01;97349.78;;;5.82;68.97
15674;BME280;7937;48.090;16.212;2023-03-23T00:28:02;97348.38;;;5.80;68.94
15674;BME280;7937;48.090;16.212;2023-03-23T00:31:05;97353.28;;;5.76;68.86
15674;BME280;7937;48.090;16.212;2023-03-23T00:34:08;97351.53;;;5.70;68.76
15674;BME280;7937;48.090;16.212;2023-03-23T00:37:12;97344.06;;;5.67;68.76
15674;BME280;7937;48.090;16.212;2023-03-23T00:40:13;97340.66;;;5.60;68.74
15674;BME280;7937;48.090;16.212;2023-03-23T00:43:15;97348.34;;;5.61;68.87
15674;BME280;7937;48.090;16.212;2023-03-23T00:46:16;97352.50;;;5.57;69.00
15674;BME280;7937;48.090;16.212;2023-03-23T00:49:21;97351.06;;;5.55;69.06
15674;BME280;7937;48.090;16.212;2023-03-23T00:52:26;97345.06;;;5.48;69.29
15674;BME280;7937;48.090;16.212;2023-03-23T00:55:27;97324.25;;;5.33;69.04
15674;BME280;7937;48.090;16.212;2023-03-23T00:58:28;97341.97;;;5.51;69.15
15674;BME280;7937;48.090;16.212;2023-03-23T01:01:29;97342.19;;;5.49;69.04
15674;BME280;7937;48.090;16.212;2023-03-23T01:04:31;97327.47;;;5.35;69.04
15674;BME280;7937;48.090;16.212;2023-03-23T01:07:32;97340.03;;;5.39;69.21
15674;BME280;7937;48.090;16.212;2023-03-23T01:10:35;97327.75;;;5.27;69.18
15674;BME280;7937;48.090;16.212;2023-03-23T01:13:39;97336.06;;;5.30;69.52
15674;BME280;7937;48.090;16.212;2023-03-23T01:16:41;97338.28;;;5.33;69.58
15674;BME280;7937;48.090;16.212;2023-03-23T01:19:42;97310.19;;;5.14;69.86
15674;BME280;7937;48.090;16.212;2023-03-23T01:22:43;97308.44;;;5.08;69.88
15674;BME280;7937;48.090;16.212;2023-03-23T01:25:44;97340.13;;;5.26;69.95
15674;BME280;7937;48.090;16.212;2023-03-23T01:28:46;97340.13;;;5.26;69.72
15674;BME280;7937;48.090;16.212;2023-03-23T01:31:47;97327.22;;;5.18;69.83
15674;BME280;7937;48.090;16.212;2023-03-23T01:34:47;97346.28;;;5.20;69.71
15674;BME280;7937;48.090;16.212;2023-03-23T01:37:48;97350.19;;;5.17;69.82
15674;BME280;7937;48.090;16.212;2023-03-23T01:40:49;97326.53;;;5.04;69.92
15674;BME280;7937;48.090;16.212;2023-03-23T01:47:04;97333.34;;;5.12;70.01
15674;BME280;7937;48.090;16.212;2023-03-23T01:50:08;97324.44;;;5.13;70.14
15674;BME280;7937;48.090;16.212;2023-03-23T01:53:10;97318.69;;;5.16;70.19
15674;BME280;7937;48.090;16.212;2023-03-23T01:56:14;97314.22;;;5.16;70.12
15674;BME280;7937;48.090;16.212;2023-03-23T01:59:17;97318.91;;;5.14;70.44
15674;BME280;7937;48.090;16.212;2023-03-23T02:02:24;97307.41;;;5.09;69.87
15674;BME280;7937;48.090;16.212;2023-03-23T02:05:30;97289.97;;;5.01;69.81
15674;BME280;7937;48.090;16.212;2023-03-23T02:08:40;97313.63;;;5.14;69.61
15674;BME280;7937;48.090;16.212;2023-03-23T02:11:42;97311.88;;;5.08;69.67
15674;BME280;7937;48.090;16.212;2023-03-23T02:14:42;97314.28;;;5.10;69.66
15674;BME280;7937;48.090;16.212;2023-03-23T02:18:08;97315.16;;;5.04;69.88
15674;BME280;7937;48.090;16.212;2023-03-23T02:21:26;97290.69;;;4.90;69.72
15674;BME280;7937;48.090;16.212;2023-03-23T02:34:41;97304.69;;;4.90;70.26
15674;BME280;7937;48.090;16.212;2023-03-23T02:37:51;97312.56;;;4.97;70.26
15674;BME280;7937;48.090;16.212;2023-03-23T02:40:56;97322.75;;;4.94;70.43
15674;BME280;7937;48.090;16.212;2023-03-23T02:44:02;97319.09;;;4.95;70.65
15674;BME280;7937;48.090;16.212;2023-03-23T02:47:06;97322.69;;;5.00;70.82
15674;BME280;7937;48.090;16.212;2023-03-23T02:50:11;97318.81;;;5.03;70.51
15674;BME280;7937;48.090;16.212;2023-03-23T02:53:16;97325.91;;;5.02;70.60
15674;BME280;7937;48.090;16.212;2023-03-23T02:56:21;97319.81;;;5.02;70.60
15674;BME280;7937;48.090;16.212;2023-03-23T02:59:23;97284.69;;;4.76;70.67
15674;BME280;7937;48.090;16.212;2023-03-23T03:02:28;97297.03;;;4.82;70.59
15674;BME280;7937;48.090;16.212;2023-03-23T03:05:42;97324.53;;;5.00;70.58
15674;BME280;7937;48.090;16.212;2023-03-23T03:08:50;97313.56;;;4.96;70.60
15674;BME280;7937;48.090;16.212;2023-03-23T03:11:58;97326.59;;;4.98;70.78
15674;BME280;7937;48.090;16.212;2023-03-23T03:15:17;97334.28;;;4.99;70.87
15674;BME280;7937;48.090;16.212;2023-03-23T03:18:25;97305.72;;;4.89;70.72
15674;BME280;7937;48.090;16.212;2023-03-23T03:21:31;97332.22;;;5.01;70.67
15674;BME280;7937;48.090;16.212;2023-03-23T03:24:35;97337.94;;;4.98;71.08
15674;BME280;7937;48.090;16.212;2023-03-23T03:27:44;97334.06;;;5.01;71.10
15674;BME280;7937;48.090;16.212;2023-03-23T03:30:55;97326.94;;;5.01;70.87
15674;BME280;7937;48.090;16.212;2023-03-23T03:33:57;97314.66;;;4.88;70.71
15674;BME280;7937;48.090;16.212;2023-03-23T03:36:58;97324.34;;;4.95;70.67
15674;BME280;7937;48.090;16.212;2023-03-23T03:40:00;97337.31;;;5.03;70.61
15674;BME280;7937;48.090;16.212;2023-03-23T03:43:01;97335.88;;;5.00;70.65
15674;BME280;7937;48.090;16.212;2023-03-23T03:46:03;97336.31;;;4.97;70.75
15674;BME280;7937;48.090;16.212;2023-03-23T03:49:06;97339.97;;;4.96;70.95
15674;BME280;7937;48.090;16.212;2023-03-23T03:52:10;97334.69;;;4.96;70.87
15674;BME280;7937;48.090;16.212;2023-03-23T03:55:15;97331.84;;;4.98;70.80
15674;BME280;7937;48.090;16.212;2023-03-23T03:58:21;97325.91;;;5.02;71.05
15674;BME280;7937;48.090;16.212;2023-03-23T04:01:45;97329.56;;;5.01;70.88
15674;BME280;7937;48.090;16.212;2023-03-23T04:04:47;97338.94;;;4.97;70.92
15674;BME280;7937;48.090;16.212;2023-03-23T04:07:49;97332.66;;;4.98;71.07
15674;BME280;7937;48.090;16.212;2023-03-23T04:10:53;97331.03;;;4.97;70.94
15674;BME280;7937;48.090;16.212;2023-03-23T04:13:55;97327.63;;;4.90;70.91
15674;BME280;7937;48.090;16.212;2023-03-23T04:16:59;97333.03;;;5.02;71.07
15674;BME280;7937;48.090;16.212;2023-03-23T04:20:00;97324.94;;;4.97;71.00
15674;BME280;7937;48.090;16.212;2023-03-23T04:23:06;97329.22;;;4.98;71.07
15674;BME280;7937;48.090;16.212;2023-03-23T04:26:09;97319.78;;;4.83;71.26
15674;BME280;7937;48.090;16.212;2023-03-23T04:29:19;97329.47;;;4.89;71.16
15674;BME280;7937;48.090;16.212;2023-03-23T04:32:55;97324.44;;;4.81;71.27
15674;BME280;7937;48.090;16.212;2023-03-23T04:36:00;97333.16;;;4.88;71.28
15674;BME280;7937;48.090;16.212;2023-03-23T04:39:11;97333.94;;;4.89;70.98
15674;BME280;7937;48.090;16.212;2023-03-23T04:42:13;97327.88;;;4.88;70.96
15674;BME280;7937;48.090;16.212;2023-03-23T04:45:57;97304.63;;;4.72;71.03
15674;BME280;7937;48.090;16.212;2023-03-23T04:49:01;97310.44;;;4.81;71.21
15674;BME280;7937;48.090;16.212;2023-03-23T04:52:09;97333.88;;;4.96;71.44
15674;BME280;7937;48.090;16.212;2023-03-23T04:55:17;97330.03;;;4.98;71.55
15674;BME280;7937;48.090;16.212;2023-03-23T04:58:27;97328.19;;;4.99;71.47
15674;BME280;7937;48.090;16.212;2023-03-23T05:01:56;97333.56;;;5.10;71.31
15674;BME280;7937;48.090;16.212;2023-03-23T05:04:58;97333.72;;;5.15;71.32
15674;BME280;7937;48.090;16.212;2023-03-23T05:08:03;97335.72;;;5.20;71.15
15674;BME280;7937;48.090;16.212;2023-03-23T05:11:08;97336.91;;;5.24;71.23
15674;BME280;7937;48.090;16.212;2023-03-23T05:14:12;97333.63;;;5.29;71.31
15674;BME280;7937;48.090;16.212;2023-03-23T05:17:16;97314.84;;;5.18;71.16
15674;BME280;7937;48.090;16.212;2023-03-23T05:20:19;97324.47;;;5.31;71.16
15674;BME280;7937;48.090;16.212;2023-03-23T05:23:43;97330.50;;;5.38;71.19
15674;BME280;7937;48.090;16.212;2023-03-23T05:26:52;97344.59;;;5.51;71.36
15674;BME280;7937;48.090;16.212;2023-03-23T05:29:59;97345.72;;;5.61;71.38
15674;BME280;7937;48.090;16.212;2023-03-23T05:33:03;97347.84;;;5.71;71.64
15674;BME280;7937;48.090;16.212;2023-03-23T05:36:16;97345.88;;;5.85;71.45
15674;BME280;7937;48.090;16.212;2023-03-23T05:39:36;97332.03;;;5.89;71.49
15674;BME280;7937;48.090;16.212;2023-03-23T05:42:53;97351.50;;;6.13;71.39
15674;BME280;7937;48.090;16.212;2023-03-23T05:46:05;97361.47;;;6.30;71.21
15674;BME280;7937;48.090;16.212;2023-03-23T05:49:06;97350.59;;;6.38;71.28
15674;BME280;7937;48.090;16.212;2023-03-23T05:52:12;97366.94;;;6.65;70.69
15674;BME280;7937;48.090;16.212;2023-03-23T05:55:14;97364.22;;;6.71;70.30
15674;BME280;7937;48.090;16.212;2023-03-23T05:58:20;97352.50;;;6.79;70.54
15674;BME280;7937;48.090;16.212;2023-03-23T06:01:22;97364.56;;;7.05;70.20
15674;BME280;7937;48.090;16.212;2023-03-23T06:04:25;97304.28;;;6.77;70.35
15674;BME280;7937;48.090;16.212;2023-03-23T06:07:43;97361.13;;;7.28;69.91
15674;BME280;7937;48.090;16.212;2023-03-23T06:10:44;97365.53;;;7.46;69.70
15674;BME280;7937;48.090;16.212;2023-03-23T06:13:47;97372.91;;;7.67;69.60
15674;BME280;7937;48.090;16.212;2023-03-23T06:16:48;97377.88;;;7.87;69.52
15674;BME280;7937;48.090;16.212;2023-03-23T06:19:49;97371.19;;;8.08;68.45
15674;BME280;7937;48.090;16.212;2023-03-23T06:22:52;97376.19;;;8.33;67.53
15674;BME280;7937;48.090;16.212;2023-03-23T06:26:13;97365.44;;;8.51;66.93
15674;BME280;7937;48.090;16.212;2023-03-23T06:29:19;97381.72;;;8.84;66.21
15674;BME280;7937;48.090;16.212;2023-03-23T06:32:28;97384.56;;;9.11;65.09
15674;BME280;7937;48.090;16.212;2023-03-23T06:35:31;97373.81;;;9.34;64.12
15674;BME280;7937;48.090;16.212;2023-03-23T06:38:47;97382.91;;;9.55;63.59
15674;BME280;7937;48.090;16.212;2023-03-23T06:41:51;97377.00;;;9.70;62.97
15674;BME280;7937;48.090;16.212;2023-03-23T06:44:52;97374.34;;;9.87;61.91
15674;BME280;7937;48.090;16.212;2023-03-23T06:47:57;97377.53;;;10.05;60.56
15674;BME280;7937;48.090;16.212;2023-03-23T06:50:58;97379.34;;;10.22;60.22
15674;BME280;7937;48.090;16.212;2023-03-23T06:54:02;97373.69;;;10.35;60.42
15674;BME280;7937;48.090;16.212;2023-03-23T06:57:07;97377.84;;;10.48;60.53
15674;BME280;7937;48.090;16.212;2023-03-23T07:00:12;97377.47;;;10.61;59.57
15674;BME280;7937;48.090;16.212;2023-03-23T07:03:15;97372.63;;;10.80;58.84
15674;BME280;7937;48.090;16.212;2023-03-23T07:06:17;97375.63;;;10.89;57.90
15674;BME280;7937;48.090;16.212;2023-03-23T07:09:24;97389.91;;;11.04;58.68
15674;BME280;7937;48.090;16.212;2023-03-23T07:12:26;97394.78;;;11.13;58.91
15674;BME280;7937;48.090;16.212;2023-03-23T07:15:29;97395.94;;;11.22;58.44
15674;BME280;7937;48.090;16.212;2023-03-23T07:18:31;97367.88;;;11.14;57.97
15674;BME280;7937;48.090;16.212;2023-03-23T07:21:34;97396.06;;;11.37;58.06
15674;BME280;7937;48.090;16.212;2023-03-23T07:24:35;97400.94;;;11.45;58.52
15674;BME280;7937;48.090;16.212;2023-03-23T07:27:46;97389.56;;;11.55;58.45
15674;BME280;7937;48.090;16.212;2023-03-23T07:30:48;97389.59;;;11.60;58.25
15674;BME280;7937;48.090;16.212;2023-03-23T07:33:49;97392.59;;;11.69;58.12
15674;BME280;7937;48.090;16.212;2023-03-23T07:36:51;97394.63;;;11.83;58.04
15674;BME280;7937;48.090;16.212;2023-03-23T07:39:52;97387.53;;;12.04;57.21
15674;BME280;7937;48.090;16.212;2023-03-23T07:42:57;97388.47;;;12.30;56.31
15674;BME280;7937;48.090;16.212;2023-03-23T07:46:21;97384.59;;;12.63;55.67
15674;BME280;7937;48.090;16.212;2023-03-23T07:49:41;97376.16;;;13.07;55.12
15674;BME280;7937;48.090;16.212;2023-03-23T07:52:57;97377.84;;;13.75;53.75
15674;BME280;7937;48.090;16.212;2023-03-23T07:56:00;97376.34;;;14.43;51.66
15674;BME280;7937;48.090;16.212;2023-03-23T07:59:22;97381.13;;;15.06;49.60
15674;BME280;7937;48.090;16.212;2023-03-23T08:02:24;97383.94;;;15.69;48.37
15674;BME280;7937;48.090;16.212;2023-03-23T08:05:30;97384.16;;;16.55;46.49
15674;BME280;7937;48.090;16.212;2023-03-23T08:08:48;97377.16;;;17.67;44.21
15674;BME280;7937;48.090;16.212;2023-03-23T08:12:08;97370.94;;;18.18;42.55
15674;BME280;7937;48.090;16.212;2023-03-23T08:15:36;97360.84;;;18.38;41.96
15674;BME280;7937;48.090;16.212;2023-03-23T08:18:56;97374.88;;;17.61;43.33
15674;BME280;7937;48.090;16.212;2023-03-23T08:22:09;97372.28;;;17.18;43.82
15674;BME280;7937;48.090;16.212;2023-03-23T08:25:33;97371.44;;;16.61;45.55
15674;BME280;7937;48.090;16.212;2023-03-23T08:28:57;97385.66;;;16.13;46.61
15674;BME280;7937;48.090;16.212;2023-03-23T08:32:18;97383.75;;;15.90;47.22
15674;BME280;7937;48.090;16.212;2023-03-23T08:35:37;97351.34;;;15.47;47.51
15674;BME280;7937;48.090;16.212;2023-03-23T08:39:05;97384.19;;;15.73;48.69
15674;BME280;7937;48.090;16.212;2023-03-23T08:42:43;97369.53;;;16.13;48.69
15674;BME280;7937;48.090;16.212;2023-03-23T08:46:04;97392.22;;;17.17;45.57
15674;BME280;7937;48.090;16.212;2023-03-23T08:49:31;97399.78;;;17.34;45.36
15674;BME280;7937;48.090;16.212;2023-03-23T08:52:59;97398.47;;;17.31;44.03
15674;BME280;7937;48.090;16.212;2023-03-23T08:56:14;97373.69;;;17.34;43.76
15674;BME280;7937;48.090;16.212;2023-03-23T08:59:40;97401.31;;;17.59;43.41
15674;BME280;7937;48.090;16.212;2023-03-23T09:03:05;97388.59;;;17.78;43.40
15674;BME280;7937;48.090;16.212;2023-03-23T09:06:27;97389.56;;;18.01;42.65
15674;BME280;7937;48.090;16.212;2023-03-23T09:09:28;97389.28;;;18.16;42.20
15674;BME280;7937;48.090;16.212;2023-03-23T09:12:29;97387.63;;;18.34;41.84
15674;BME280;7937;48.090;16.212;2023-03-23T09:15:30;97357.75;;;18.30;40.90
15674;BME280;7937;48.090;16.212;2023-03-23T09:18:31;97370.91;;;18.60;40.59
15674;BME280;7937;48.090;16.212;2023-03-23T09:21:35;97347.84;;;18.67;40.70
15674;BME280;7937;48.090;16.212;2023-03-23T09:24:36;97389.25;;;19.13;39.85
15674;BME280;7937;48.090;16.212;2023-03-23T09:27:38;97388.56;;;19.43;38.56
15674;BME280;7937;48.090;16.212;2023-03-23T09:30:40;97382.69;;;19.64;37.33
15674;BME280;7937;48.090;16.212;2023-03-23T09:33:41;97389.03;;;19.81;37.94
15674;BME280;7937;48.090;16.212;2023-03-23T09:36:43;97371.47;;;20.01;36.47
15674;BME280;7937;48.090;16.212;2023-03-23T09:39:44;97386.53;;;20.56;35.06
15674;BME280;7937;48.090;16.212;2023-03-23T09:49:50;97379.97;;;21.66;32.72
15674;BME280;7937;48.090;16.212;2023-03-23T09:52:56;97383.41;;;22.01;33.24
15674;BME280;7937;48.090;16.212;2023-03-23T09:55:59;97358.97;;;22.19;32.33
15674;BME280;7937;48.090;16.212;2023-03-23T10:02:30;97379.47;;;22.75;29.85
15674;BME280;7937;48.090;16.212;2023-03-23T10:05:39;97374.13;;;22.87;28.03
15674;BME280;7937;48.090;16.212;2023-03-23T10:08:52;97381.59;;;23.20;28.83
15674;BME280;7937;48.090;16.212;2023-03-23T10:12:10;97367.16;;;23.28;28.86
15674;BME280;7937;48.090;16.212;2023-03-23T10:15:28;97369.75;;;23.46;28.55
15674;BME280;7937;48.090;16.212;2023-03-23T10:18:38;97348.22;;;23.53;25.97
15674;BME280;7937;48.090;16.212;2023-03-23T10:21:48;97355.56;;;23.73;26.72
15674;BME280;7937;48.090;16.212;2023-03-23T10:28:15;97339.09;;;23.36;27.12
15674;BME280;7937;48.090;16.212;2023-03-23T10:31:22;97355.47;;;23.70;27.65
15674;BME280;7937;48.090;16.212;2023-03-23T10:34:34;97345.88;;;23.84;27.60
15674;BME280;7937;48.090;16.212;2023-03-23T10:37:40;97352.84;;;23.73;27.99
15674;BME280;7937;48.090;16.212;2023-03-23T10:40:49;97348.16;;;23.61;28.06
15674;BME280;7937;48.090;16.212;2023-03-23T10:43:50;97352.44;;;23.50;28.25
15674;BME280;7937;48.090;16.212;2023-03-23T10:50:01;97344.59;;;23.70;28.48
15674;BME280;7937;48.090;16.212;2023-03-23T10:53:15;97350.63;;;23.75;29.14
15674;BME280;7937;48.090;16.212;2023-03-23T10:56:26;97331.00;;;23.49;28.87
15674;BME280;7937;48.090;16.212;2023-03-23T10:59:30;97340.75;;;23.71;29.30
15674;BME280;7937;48.090;16.212;2023-03-23T11:02:47;97335.69;;;23.60;28.82
15674;BME280;7937;48.090;16.212;2023-03-23T11:05:59;97336.22;;;23.54;29.34
15674;BME280;7937;48.090;16.212;2023-03-23T11:09:12;97342.28;;;23.38;29.10
15674;BME280;7937;48.090;16.212;2023-03-23T11:12:18;97341.28;;;23.43;27.82
15674;BME280;7937;48.090;16.212;2023-03-23T11:18:39;97341.03;;;22.64;29.84
15674;BME280;7937;48.090;16.212;2023-03-23T11:21:47;97323.59;;;22.95;29.62
15674;BME280;7937;48.090;16.212;2023-03-23T11:24:52;97333.06;;;22.89;29.85
15674;BME280;7937;48.090;16.212;2023-03-23T11:27:54;97334.09;;;22.46;29.92
15674;BME280;7937;48.090;16.212;2023-03-23T11:30:57;97332.28;;;22.29;29.83
15674;BME280;7937;48.090;16.212;2023-03-23T11:34:02;97333.84;;;22.30;30.13
15674;BME280;7937;48.090;16.212;2023-03-23T11:37:11;97307.41;;;22.27;30.11
15674;BME280;7937;48.090;16.212;2023-03-23T11:40:19;97325.91;;;22.55;29.86
15674;BME280;7937;48.090;16.212;2023-03-23T11:43:24;97323.28;;;22.67;30.25
15674;BME280;7937;48.090;16.212;2023-03-23T11:46:35;97326.56;;;22.81;29.25
15674;BME280;7937;48.090;16.212;2023-03-23T11:49:59;97317.97;;;23.00;28.45
15674;BME280;7937;48.090;16.212;2023-03-23T11:59:35;97317.72;;;22.93;27.75
15674;BME280;7937;48.090;16.212;2023-03-23T12:23:40;97310.91;;;21.72;30.66
15674;BME280;7937;48.090;16.212;2023-03-23T12:27:00;97306.66;;;21.36;30.55
15674;BME280;7937;48.090;16.212;2023-03-23T12:53:21;97292.47;;;20.87;31.37
15674;BME280;7937;48.090;16.212;2023-03-23T12:56:36;97257.59;;;20.77;31.55
15674;BME280;7937;48.090;16.212;2023-03-23T13:06:21;97280.34;;;21.46;29.91
15674;BME280;7937;48.090;16.212;2023-03-23T13:13:14;97242.69;;;21.61;29.09
15674;BME280;7937;48.090;16.212;2023-03-23T13:16:35;97252.59;;;21.96;29.18
15674;BME280;7937;48.090;16.212;2023-03-23T13:23:23;97261.88;;;21.86;28.86
15674;BME280;7937;48.090;16.212;2023-03-23T13:26:25;97258.84;;;21.49;28.37
15674;BME280;7937;48.090;16.212;2023-03-23T13:29:28;97250.34;;;21.59;28.33
15674;BME280;7937;48.090;16.212;2023-03-23T13:32:34;97246.94;;;21.71;28.63
15674;BME280;7937;48.090;16.212;2023-03-23T13:35:37;97239.78;;;21.67;29.04
15674;BME280;7937;48.090;16.212;2023-03-23T13:38:45;97241.16;;;21.81;28.72
15674;BME280;7937;48.090;16.212;2023-03-23T13:45:18;97238.22;;;21.66;28.91
15674;BME280;7937;48.090;16.212;2023-03-23T13:48:23;97235.22;;;21.58;28.27
15674;BME280;7937;48.090;16.212;2023-03-23T13:54:46;97210.09;;;21.32;29.41
15674;BME280;7937;48.090;16.212;2023-03-23T13:58:09;97232.69;;;21.45;29.35
15674;BME280;7937;48.090;16.212;2023-03-23T14:01:17;97232.22;;;21.43;28.76
15674;BME280;7937;48.090;16.212;2023-03-23T14:04:18;97231.25;;;21.47;29.27
15674;BME280;7937;48.090;16.212;2023-03-23T14:07:20;97229.19;;;21.53;29.77
15674;BME280;7937;48.090;16.212;2023-03-23T14:10:21;97227.84;;;21.68;29.40
15674;BME280;7937;48.090;16.212;2023-03-23T14:16:49;97211.81;;;21.83;30.00
15674;BME280;7937;48.090;16.212;2023-03-23T14:19:54;97196.72;;;21.74;29.74
15674;BME280;7937;48.090;16.212;2023-03-23T14:23:16;97221.72;;;21.79;29.51
15674;BME280;7937;48.090;16.212;2023-03-23T14:26:20;97227.50;;;21.69;29.63
15674;BME280;7937;48.090;16.212;2023-03-23T14:29:21;97214.16;;;21.55;30.02
15674;BME280;7937;48.090;16.212;2023-03-23T14:32:23;97231.81;;;21.70;29.59
15674;BME280;7937;48.090;16.212;2023-03-23T14:35:32;97231.34;;;21.68;29.32
15674;BME280;7937;48.090;16.212;2023-03-23T14:38:33;97221.25;;;21.39;29.59
15674;BME280;7937;48.090;16.212;2023-03-23T14:41:35;97234.31;;;21.28;29.78
15674;BME280;7937;48.090;16.212;2023-03-23T14:44:42;97234.31;;;21.20;29.59
15674;BME280;7937;48.090;16.212;2023-03-23T14:47:52;97234.94;;;21.17;29.14
15674;BME280;7937;48.090;16.212;2023-03-23T14:50:58;97230.50;;;21.12;29.57
15674;BME280;7937;48.090;16.212;2023-03-23T14:54:00;97232.13;;;21.04;29.67
15674;BME280;7937;48.090;16.212;2023-03-23T14:57:18;97206.94;;;20.86;29.88
15674;BME280;7937;48.090;16.212;2023-03-23T15:00:23;97227.03;;;20.94;30.08
15674;BME280;7937;48.090;16.212;2023-03-23T15:03:28;97216.50;;;20.93;30.12
15674;BME280;7937;48.090;16.212;2023-03-23T15:06:33;97226.41;;;20.80;30.46
15674;BME280;7937;48.090;16.212;2023-03-23T15:09:39;97211.75;;;20.55;30.59
15674;BME280;7937;48.090;16.212;2023-03-23T15:12:43;97195.28;;;20.43;30.59
15674;BME280;7937;48.090;16.212;2023-03-23T15:15:45;97230.84;;;20.58;30.36
15674;BME280;7937;48.090;16.212;2023-03-23T15:18:51;97222.22;;;20.48;29.97
15674;BME280;7937;48.090;16.212;2023-03-23T15:21:56;97228.75;;;20.47;30.60
15674;BME280;7937;48.090;16.212;2023-03-23T15:25:12;97229.38;;;20.35;30.89
15674;BME280;7937;48.090;16.212;2023-03-23T15:28:16;97201.94;;;20.10;31.20
15674;BME280;7937;48.090;16.212;2023-03-23T15:31:24;97231.69;;;20.10;31.62
15674;BME280;7937;48.090;16.212;2023-03-23T15:34:31;97241.50;;;19.98;32.14
15674;BME280;7937;48.090;16.212;2023-03-23T15:37:34;97233.50;;;19.84;32.21
15674;BME280;7937;48.090;16.212;2023-03-23T15:40:38;97237.94;;;19.71;32.39
15674;BME280;7937;48.090;16.212;2023-03-23T15:43:54;97239.38;;;19.55;32.36
15674;BME280;7937;48.090;16.212;2023-03-23T15:47:14;97234.25;;;19.45;32.48
15674;BME280;7937;48.090;16.212;2023-03-23T15:53:36;97232.28;;;19.28;32.75
15674;BME280;7937;48.090;16.212;2023-03-23T15:56:38;97230.19;;;19.25;33.10
15674;BME280;7937;48.090;16.212;2023-03-23T15:59:39;97220.56;;;19.10;33.40
15674;BME280;7937;48.090;16.212;2023-03-23T16:02:41;97227.06;;;19.09;33.55
15674;BME280;7937;48.090;16.212;2023-03-23T16:05:44;97226.84;;;18.97;34.33
15674;BME280;7937;48.090;16.212;2023-03-23T16:08:46;97202.25;;;18.62;34.09
15674;BME280;7937;48.090;16.212;2023-03-23T16:11:55;97227.94;;;18.60;34.35
15674;BME280;7937;48.090;16.212;2023-03-23T16:14:57;97232.44;;;18.50;34.81
15674;BME280;7937;48.090;16.212;2023-03-23T16:17:59;97239.28;;;18.34;35.01
15674;BME280;7937;48.090;16.212;2023-03-23T16:21:01;97234.72;;;18.21;35.97
15674;BME280;7937;48.090;16.212;2023-03-23T16:24:04;97239.63;;;18.05;35.99
15674;BME280;7937;48.090;16.212;2023-03-23T16:27:08;97244.69;;;17.93;36.56
15674;BME280;7937;48.090;16.212;2023-03-23T16:30:22;97245.31;;;17.76;37.12
15674;BME280;7937;48.090;16.212;2023-03-23T16:33:24;97256.22;;;17.52;38.84
15674;BME280;7937;48.090;16.212;2023-03-23T16:36:26;97243.50;;;17.25;38.95
15674;BME280;7937;48.090;16.212;2023-03-23T16:39:29;97244.22;;;16.98;40.37
15674;BME280;7937;48.090;16.212;2023-03-23T16:42:31;97255.66;;;16.90;40.75
15674;BME280;7937;48.090;16.212;2023-03-23T16:45:33;97267.72;;;16.73;41.10
15674;BME280;7937;48.090;16.212;2023-03-23T16:48:36;97267.41;;;16.56;41.50
15674;BME280;7937;48.090;16.212;2023-03-23T16:51:39;97272.84;;;16.32;42.68
15674;BME280;7937;48.090;16.212;2023-03-23T16:54:43;97254.97;;;15.98;43.28
15674;BME280;7937;48.090;16.212;2023-03-23T16:57:45;97243.50;;;15.69;43.90
15674;BME280;7937;48.090;16.212;2023-03-23T17:00:49;97259.19;;;15.52;44.51
15674;BME280;7937;48.090;16.212;2023-03-23T17:03:52;97280.78;;;15.41;45.21
15674;BME280;7937;48.090;16.212;2023-03-23T17:06:55;97285.28;;;15.17;45.52
15674;BME280;7937;48.090;16.212;2023-03-23T17:09:59;97286.78;;;14.99;46.40
15674;BME280;7937;48.090;16.212;2023-03-23T17:13:01;97291.75;;;14.77;46.67
15674;BME280;7937;48.090;16.212;2023-03-23T17:16:04;97297.22;;;14.56;47.74
15674;BME280;7937;48.090;16.212;2023-03-23T17:19:07;97297.84;;;14.33;47.78
15674;BME280;7937;48.090;16.212;2023-03-23T17:22:09;97287.75;;;14.14;47.91
15674;BME280;7937;48.090;16.212;2023-03-23T17:25:12;97258.94;;;13.86;48.49
15674;BME280;7937;48.090;16.212;2023-03-23T17:28:15;97279.56;;;13.80;48.42
15674;BME280;7937;48.090;16.212;2023-03-23T17:31:20;97286.81;;;13.59;49.31
15674;BME280;7937;48.090;16.212;2023-03-23T17:34:24;97292.22;;;13.39;50.03
15674;BME280;7937;48.090;16.212;2023-03-23T17:37:26;97260.91;;;12.99;49.90
15674;BME280;7937;48.090;16.212;2023-03-23T17:40:28;97289.50;;;13.08;50.13
15674;BME280;7937;48.090;16.212;2023-03-23T17:43:30;97293.53;;;12.96;50.63
15674;BME280;7937;48.090;16.212;2023-03-23T17:46:34;97287.34;;;12.75;50.93
15674;BME280;7937;48.090;16.212;2023-03-23T17:49:37;97301.25;;;12.67;51.27
15674;BME280;7937;48.090;16.212;2023-03-23T17:52:39;97282.19;;;12.32;51.78
15674;BME280;7937;48.090;16.212;2023-03-23T17:55:45;97306.78;;;12.39;51.88
15674;BME280;7937;48.090;16.212;2023-03-23T17:58:48;97316.63;;;12.29;52.30
15674;BME280;7937;48.090;16.212;2023-03-23T18:01:51;97312.84;;;12.20;52.28
15674;BME280;7937;48.090;16.212;2023-03-23T18:04:57;97298.34;;;12.05;53.18
15674;BME280;7937;48.090;16.212;2023-03-23T18:08:00;97306.59;;;11.99;53.34
15674;BME280;7937;48.090;16.212;2023-03-23T18:11:04;97288.88;;;11.77;53.34
15674;BME280;7937;48.090;16.212;2023-03-23T18:14:09;97314.22;;;11.80;54.02
15674;BME280;7937;48.090;16.212;2023-03-23T18:17:12;97295.44;;;11.65;54.20
15674;BME280;7937;48.090;16.212;2023-03-23T18:20:14;97312.56;;;11.69;54.56
15674;BME280;7937;48.090;16.212;2023-03-23T18:23:17;97317.88;;;11.63;54.95
15674;BME280;7937;48.090;16.212;2023-03-23T18:26:21;97326.06;;;11.57;55.38